Time;durP1;ratioP1;P1;durP2;ratioP2;P2;SDS_P1;SDS_P2;PMS_P1;PMS_P2;Temp;Humidity;BMP_temperature;BMP_pressure;BME280_temperature;BME280_humidity;BME280_pressure;Samples;Min_cycle;Max_cycle;Signal;HPM_P1;HPM_P2
2023/04/08 02:01:28;;;;;;;26.05;11.30;;;;;;;;;;4607558;28;20089;-69
2023/04/08 02:03:56;;;;;;;18.80;9.68;;;;;;;;;;4207899;34;20070;-68
2023/04/08 02:06:24;;;;;;;21.05;10.05;;;;;;;;;;4206021;34;20039;-69
2023/04/08 02:08:50;;;;;;;25.42;11.85;;;;;;;;;;4207311;34;20052;-69
2023/04/08 02:11:18;;;;;;;26.50;11.18;;;;;;;;;;4207037;34;20054;-68
2023/04/08 02:13:44;;;;;;;26.83;12.27;;;;;;;;;;4208303;34;20394;-68
2023/04/08 02:16:31;;;;;;;20.37;10.40;;;;;;;;;;4205652;34;20452;-70
2023/04/08 02:18:59;;;;;;;16.33;9.15;;;;;;;;;;4193837;34;20454;-70
2023/04/08 02:21:29;;;;;;;17.95;9.73;;;;;;;;;;4206802;34;20598;-68
2023/04/08 02:23:56;;;;;;;19.12;8.80;;;;;;;;;;4206135;34;20077;-69
2023/04/08 02:26:23;;;;;;;23.10;9.25;;;;;;;;;;4205646;34;20726;-69
2023/04/08 02:28:50;;;;;;;18.37;9.05;;;;;;;;;;4208081;34;20495;-69
2023/04/08 02:31:23;;;;;;;16.92;8.93;;;;;;;;;;4207379;34;20059;-68
2023/04/08 02:33:50;;;;;;;15.02;8.13;;;;;;;;;;4205580;34;20065;-67
2023/04/08 02:36:16;;;;;;;15.85;8.48;;;;;;;;;;4235278;33;20042;-68
2023/04/08 02:38:46;;;;;;;14.68;8.43;;;;;;;;;;4234497;33;20046;-69
2023/04/08 02:41:15;;;;;;;14.38;8.13;;;;;;;;;;4235799;33;20045;-68
2023/04/08 02:43:41;;;;;;;12.52;8.25;;;;;;;;;;4237120;33;20113;-68
2023/04/08 02:46:08;;;;;;;21.15;9.18;;;;;;;;;;4234088;33;20237;-68
2023/04/08 02:48:35;;;;;;;15.05;7.22;;;;;;;;;;4235002;33;20729;-68
2023/04/08 02:51:02;;;;;;;13.77;7.72;;;;;;;;;;4235648;33;20054;-68
2023/04/08 02:53:28;;;;;;;14.38;8.40;;;;;;;;;;4235450;33;20039;-68
2023/04/08 02:55:55;;;;;;;11.88;7.87;;;;;;;;;;4235507;33;20080;-70
2023/04/08 02:58:21;;;;;;;9.88;6.25;;;;;;;;;;4235117;33;20089;-68
2023/04/08 03:00:47;;;;;;;10.77;6.07;;;;;;;;;;4235286;33;20228;-69
2023/04/08 03:03:13;;;;;;;10.55;6.25;;;;;;;;;;4235476;33;20072;-68
2023/04/08 03:05:39;;;;;;;9.65;6.60;;;;;;;;;;4247813;33;20039;-68
2023/04/08 03:08:05;;;;;;;11.82;6.22;;;;;;;;;;4249231;33;20050;-71
2023/04/08 03:10:32;;;;;;;9.82;6.43;;;;;;;;;;4261369;33;20045;-68
2023/04/08 03:12:58;;;;;;;10.02;6.15;;;;;;;;;;4264439;33;20087;-68
2023/04/08 03:15:24;;;;;;;16.17;7.18;;;;;;;;;;4257258;33;20063;-68
2023/04/08 03:17:51;;;;;;;12.25;7.18;;;;;;;;;;4263371;33;20150;-68
2023/04/08 03:20:16;;;;;;;11.60;6.37;;;;;;;;;;4263134;33;20022;-70
2023/04/08 03:22:43;;;;;;;13.15;6.18;;;;;;;;;;4261453;33;20201;-69
2023/04/08 03:25:10;;;;;;;8.98;6.00;;;;;;;;;;4263574;33;21413;-69
2023/04/08 03:27:36;;;;;;;9.15;5.85;;;;;;;;;;4263438;33;20064;-68
2023/04/08 03:30:02;;;;;;;13.30;6.35;;;;;;;;;;4264917;33;20041;-68
2023/04/08 03:32:29;;;;;;;9.98;5.97;;;;;;;;;;4262715;33;20456;-69
2023/04/08 03:34:55;;;;;;;8.90;5.80;;;;;;;;;;4263781;33;20054;-69
2023/04/08 03:37:21;;;;;;;7.28;5.68;;;;;;;;;;4264602;33;20072;-69
2023/04/08 03:39:47;;;;;;;9.63;5.55;;;;;;;;;;4264353;33;20459;-69
2023/04/08 03:42:13;;;;;;;8.18;5.22;;;;;;;;;;4254371;33;20034;-68
2023/04/08 03:44:39;;;;;;;11.63;6.87;;;;;;;;;;4250820;33;20133;-71
2023/04/08 03:47:06;;;;;;;12.23;6.03;;;;;;;;;;4255033;33;20057;-66
2023/04/08 03:49:38;;;;;;;8.68;5.70;;;;;;;;;;4254279;33;20074;-69
2023/04/08 03:52:04;;;;;;;9.20;5.80;;;;;;;;;;4251656;33;20053;-69
2023/04/08 03:54:30;;;;;;;10.40;6.55;;;;;;;;;;4251943;33;20396;-70
2023/04/08 03:56:56;;;;;;;8.93;5.70;;;;;;;;;;4233219;33;20054;-72
2023/04/08 03:59:22;;;;;;;9.68;5.60;;;;;;;;;;4235132;33;20110;-69
2023/04/08 04:01:50;;;;;;;7.37;4.87;;;;;;;;;;4235846;33;20058;-68
2023/04/08 04:04:16;;;;;;;8.85;6.50;;;;;;;;;;4234914;33;20046;-68
2023/04/08 04:06:42;;;;;;;12.40;7.43;;;;;;;;;;4235135;33;20118;-69
2023/04/08 04:09:08;;;;;;;9.32;5.78;;;;;;;;;;4232586;33;20202;-67
2023/04/08 04:11:35;;;;;;;9.95;6.00;;;;;;;;;;4237147;33;20068;-67
2023/04/08 04:14:01;;;;;;;9.10;6.35;;;;;;;;;;4237831;33;20074;-68
2023/04/08 04:16:27;;;;;;;10.20;6.72;;;;;;;;;;4238973;33;20063;-68
2023/04/08 04:18:53;;;;;;;10.15;6.87;;;;;;;;;;4234489;33;20077;-70
2023/04/08 04:21:19;;;;;;;12.98;6.78;;;;;;;;;;4233820;33;20068;-68
2023/04/08 04:23:45;;;;;;;11.27;6.40;;;;;;;;;;4234051;33;20094;-69
2023/04/08 04:26:12;;;;;;;10.32;6.10;;;;;;;;;;4234466;33;20047;-68
2023/04/08 04:28:38;;;;;;;8.93;6.10;;;;;;;;;;4235037;33;20089;-68
2023/04/08 04:31:04;;;;;;;8.45;5.18;;;;;;;;;;4232428;33;20437;-69
2023/04/08 04:33:30;;;;;;;10.02;6.90;;;;;;;;;;4235135;33;20078;-68
2023/04/08 04:35:56;;;;;;;7.32;5.03;;;;;;;;;;4235384;33;20050;-68
2023/04/08 04:38:22;;;;;;;7.90;5.30;;;;;;;;;;4235511;33;20352;-68
2023/04/08 04:40:49;;;;;;;7.12;5.12;;;;;;;;;;4262308;33;20071;-68
2023/04/08 04:43:15;;;;;;;6.95;4.85;;;;;;;;;;4246771;33;20038;-68
2023/04/08 04:45:41;;;;;;;6.78;4.47;;;;;;;;;;4257854;33;20101;-68
2023/04/08 04:48:07;;;;;;;5.20;4.70;;;;;;;;;;4263602;33;20065;-67
2023/04/08 04:50:33;;;;;;;6.75;4.15;;;;;;;;;;4240992;33;20149;-68
2023/04/08 04:52:59;;;;;;;6.93;4.50;;;;;;;;;;4233929;33;20611;-69
2023/04/08 04:55:26;;;;;;;5.37;4.35;;;;;;;;;;4232482;33;20270;-68
2023/04/08 04:57:52;;;;;;;6.12;4.47;;;;;;;;;;4235167;33;20114;-69
2023/04/08 05:00:18;;;;;;;8.55;4.35;;;;;;;;;;4233571;33;20066;-70
2023/04/08 05:02:45;;;;;;;7.05;5.82;;;;;;;;;;4232273;33;20050;-68
2023/04/08 05:05:11;;;;;;;6.07;4.85;;;;;;;;;;4233182;33;20286;-72
2023/04/08 05:07:37;;;;;;;7.65;5.18;;;;;;;;;;4234124;33;20043;-68
2023/04/08 05:10:04;;;;;;;9.38;5.07;;;;;;;;;;4231832;33;20057;-68
2023/04/08 05:12:30;;;;;;;7.47;5.05;;;;;;;;;;4222610;33;20104;-70
2023/04/08 05:14:57;;;;;;;7.68;4.87;;;;;;;;;;4230865;33;20507;-68
2023/04/08 05:17:23;;;;;;;7.10;5.00;;;;;;;;;;4246841;33;20035;-68
2023/04/08 05:19:50;;;;;;;7.53;4.62;;;;;;;;;;4247368;33;20071;-68
2023/04/08 05:22:16;;;;;;;5.37;3.95;;;;;;;;;;4247152;33;20042;-68
2023/04/08 05:24:42;;;;;;;8.48;5.75;;;;;;;;;;4249122;33;20062;-68
2023/04/08 05:27:08;;;;;;;6.57;5.22;;;;;;;;;;4246775;33;20090;-69
2023/04/08 05:29:34;;;;;;;9.52;5.25;;;;;;;;;;4247038;33;20068;-68
2023/04/08 05:32:01;;;;;;;7.07;5.12;;;;;;;;;;4249121;33;20080;-68
2023/04/08 05:34:27;;;;;;;7.50;5.45;;;;;;;;;;4248878;33;20121;-69
2023/04/08 05:36:53;;;;;;;5.57;4.00;;;;;;;;;;4251698;33;20049;-68
2023/04/08 05:39:19;;;;;;;7.70;4.93;;;;;;;;;;4250117;33;20083;-72
2023/04/08 05:41:45;;;;;;;5.43;4.03;;;;;;;;;;4250336;33;20102;-68
2023/04/08 05:44:12;;;;;;;7.70;5.22;;;;;;;;;;4252080;33;20070;-68
2023/04/08 05:46:39;;;;;;;6.25;4.90;;;;;;;;;;4250630;33;20058;-68
2023/04/08 05:49:05;;;;;;;7.68;5.50;;;;;;;;;;4229345;33;20043;-68
2023/04/08 05:51:31;;;;;;;9.55;5.00;;;;;;;;;;4221277;34;20043;-71
2023/04/08 05:53:57;;;;;;;8.60;5.40;;;;;;;;;;4218012;34;20444;-69
2023/04/08 05:56:23;;;;;;;6.65;5.12;;;;;;;;;;4219515;33;20094;-68
2023/04/08 05:58:49;;;;;;;7.45;5.03;;;;;;;;;;4223202;33;20073;-68
2023/04/08 06:01:16;;;;;;;10.73;6.15;;;;;;;;;;4219738;33;20081;-68
2023/04/08 06:03:42;;;;;;;11.77;7.28;;;;;;;;;;4230517;33;20056;-68
2023/04/08 06:06:10;;;;;;;7.95;5.35;;;;;;;;;;4236444;33;20297;-68
2023/04/08 06:08:36;;;;;;;8.57;5.97;;;;;;;;;;4261914;33;20100;-69
2023/04/08 06:11:05;;;;;;;11.98;6.25;;;;;;;;;;4265245;33;20489;-68
2023/04/08 06:13:31;;;;;;;9.40;4.75;;;;;;;;;;4263926;33;20399;-68
2023/04/08 06:15:58;;;;;;;7.18;5.03;;;;;;;;;;4257801;33;20055;-71
2023/04/08 06:18:24;;;;;;;10.82;5.90;;;;;;;;;;4264831;33;20846;-68
2023/04/08 06:20:50;;;;;;;6.87;4.57;;;;;;;;;;4264424;33;20140;-69
2023/04/08 06:23:16;;;;;;;10.13;5.37;;;;;;;;;;4262416;33;20046;-67
2023/04/08 06:25:42;;;;;;;8.55;4.90;;;;;;;;;;4262337;33;20064;-68
2023/04/08 06:28:09;;;;;;;9.48;5.65;;;;;;;;;;4262675;33;20097;-68
2023/04/08 06:30:35;;;;;;;8.77;6.32;;;;;;;;;;4264868;33;20077;-68
2023/04/08 06:33:01;;;;;;;7.15;5.32;;;;;;;;;;4264559;33;20074;-67
2023/04/08 06:35:27;;;;;;;9.55;6.15;;;;;;;;;;4263854;33;20309;-67
2023/04/08 06:37:53;;;;;;;8.13;5.82;;;;;;;;;;4265173;33;20407;-67
2023/04/08 06:40:19;;;;;;;8.35;5.95;;;;;;;;;;4253325;33;20497;-68
2023/04/08 06:42:45;;;;;;;11.60;5.85;;;;;;;;;;4250401;33;20927;-68
2023/04/08 06:45:14;;;;;;;8.48;6.25;;;;;;;;;;4249240;33;20367;-68
2023/04/08 06:47:40;;;;;;;9.85;6.00;;;;;;;;;;4249956;33;20502;-68
2023/04/08 06:50:06;;;;;;;9.32;6.25;;;;;;;;;;4243746;33;20110;-68
2023/04/08 06:52:32;;;;;;;12.70;6.97;;;;;;;;;;4243276;33;20050;-68
2023/04/08 06:55:06;;;;;;;10.40;6.68;;;;;;;;;;4243527;33;20034;-68
2023/04/08 06:57:32;;;;;;;9.20;6.15;;;;;;;;;;4249838;33;20063;-68
2023/04/08 06:59:59;;;;;;;11.43;6.70;;;;;;;;;;4249032;33;20922;-68
2023/04/08 07:02:25;;;;;;;17.62;6.25;;;;;;;;;;4262268;33;20128;-69
2023/04/08 07:04:51;;;;;;;9.13;5.95;;;;;;;;;;4263382;33;20070;-68
2023/04/08 07:07:18;;;;;;;9.40;5.82;;;;;;;;;;4263912;33;20844;-68
2023/04/08 07:09:45;;;;;;;12.57;7.05;;;;;;;;;;4234972;33;20061;-69
2023/04/08 07:12:11;;;;;;;8.70;7.45;;;;;;;;;;4234364;33;20122;-67
2023/04/08 07:14:43;;;;;;;;;;;;;;;;;;4230221;33;20060;-69
2023/04/08 07:17:09;;;;;;;11.10;6.85;;;;;;;;;;4233629;33;20487;-69
2023/04/08 07:19:36;;;;;;;11.50;6.65;;;;;;;;;;4235808;33;20122;-69
2023/04/08 07:22:02;;;;;;;9.10;6.37;;;;;;;;;;4235511;33;20201;-68
2023/04/08 07:24:28;;;;;;;9.77;6.15;;;;;;;;;;4220455;34;20027;-67
2023/04/08 07:26:55;;;;;;;14.07;7.93;;;;;;;;;;4216726;33;20077;-71
2023/04/08 07:29:21;;;;;;;12.63;6.78;;;;;;;;;;4220291;33;20097;-68
2023/04/08 07:31:48;;;;;;;11.60;6.80;;;;;;;;;;4220830;34;20389;-69
2023/04/08 07:34:14;;;;;;;12.73;7.57;;;;;;;;;;4210587;34;20059;-69
2023/04/08 07:36:40;;;;;;;11.77;7.00;;;;;;;;;;4205923;34;20412;-68
2023/04/08 07:39:06;;;;;;;13.35;8.55;;;;;;;;;;4205895;34;20113;-72
2023/04/08 07:41:32;;;;;;;11.63;6.87;;;;;;;;;;4214679;34;20059;-69
2023/04/08 07:43:58;;;;;;;8.77;6.47;;;;;;;;;;4221228;34;20077;-69
2023/04/08 07:46:25;;;;;;;11.82;6.82;;;;;;;;;;4220182;33;20061;-68
2023/04/08 07:48:51;;;;;;;14.87;8.32;;;;;;;;;;4218912;33;20500;-67
2023/04/08 07:51:18;;;;;;;10.80;7.45;;;;;;;;;;4217318;34;20061;-70
2023/04/08 07:53:44;;;;;;;12.68;7.07;;;;;;;;;;4218769;33;20042;-68
2023/04/08 07:56:11;;;;;;;11.50;7.05;;;;;;;;;;4242744;33;20042;-67
2023/04/08 07:58:43;;;;;;;11.40;7.53;;;;;;;;;;4249806;33;20046;-67
2023/04/08 08:01:20;;;;;;;10.93;6.82;;;;;;;;;;4249146;33;20068;-71
2023/04/08 08:03:48;;;;;;;13.85;7.47;;;;;;;;;;4260066;33;20097;-67
2023/04/08 08:06:14;;;;;;;13.02;7.07;;;;;;;;;;4260811;33;20759;-68
2023/04/08 08:08:40;;;;;;;10.57;7.68;;;;;;;;;;4259319;33;20762;-66
2023/04/08 08:11:07;;;;;;;19.33;7.53;;;;;;;;;;4258186;33;20283;-68
2023/04/08 08:13:33;;;;;;;13.73;7.18;;;;;;;;;;4258858;33;20511;-69
2023/04/08 08:15:59;;;;;;;13.43;7.75;;;;;;;;;;4261517;33;20062;-68
2023/04/08 08:18:25;;;;;;;11.05;7.00;;;;;;;;;;4261465;33;20049;-68
2023/04/08 08:20:52;;;;;;;11.38;8.02;;;;;;;;;;4261267;33;20038;-68
2023/04/08 08:23:17;;;;;;;12.95;8.20;;;;;;;;;;4261492;33;20109;-69
2023/04/08 08:25:44;;;;;;;14.73;7.87;;;;;;;;;;4259558;33;20080;-71
2023/04/08 08:28:10;;;;;;;13.43;8.05;;;;;;;;;;4262651;33;20790;-68
2023/04/08 08:30:37;;;;;;;14.60;9.15;;;;;;;;;;4263275;33;20419;-68
2023/04/08 08:33:03;;;;;;;10.80;7.68;;;;;;;;;;4262302;33;20072;-69
2023/04/08 08:35:29;;;;;;;12.75;8.45;;;;;;;;;;4248003;33;20782;-67
2023/04/08 08:37:55;;;;;;;13.35;8.07;;;;;;;;;;4248806;33;20058;-71
2023/04/08 08:40:22;;;;;;;11.25;7.90;;;;;;;;;;4249255;33;20362;-67
2023/04/08 08:42:51;;;;;;;12.13;8.38;;;;;;;;;;4253168;33;20118;-67
2023/04/08 08:45:21;;;;;;;13.98;8.73;;;;;;;;;;4251291;33;20042;-67
2023/04/08 08:47:47;;;;;;;15.60;7.78;;;;;;;;;;4248734;33;20187;-68
2023/04/08 08:50:14;;;;;;;13.48;8.13;;;;;;;;;;4245072;33;20058;-70
2023/04/08 08:52:46;;;;;;;15.52;8.40;;;;;;;;;;4244971;33;20134;-67
2023/04/08 08:55:13;;;;;;;15.50;9.02;;;;;;;;;;4246692;33;20256;-68
2023/04/08 08:57:39;;;;;;;14.75;8.23;;;;;;;;;;4245901;33;20049;-68
2023/04/08 09:00:05;;;;;;;11.60;7.78;;;;;;;;;;4247672;33;20460;-69
2023/04/08 09:02:32;;;;;;;16.08;7.80;;;;;;;;;;4262818;33;20074;-68
2023/04/08 09:05:00;;;;;;;11.02;7.55;;;;;;;;;;4263360;33;20383;-68
2023/04/08 09:07:26;;;;;;;10.65;7.40;;;;;;;;;;4261170;33;20042;-68
2023/04/08 09:09:53;;;;;;;12.15;7.85;;;;;;;;;;4230485;33;20067;-68
2023/04/08 09:12:20;;;;;;;13.13;8.32;;;;;;;;;;4232482;33;20054;-68
2023/04/08 09:14:47;;;;;;;12.57;8.63;;;;;;;;;;4220162;33;20417;-68
2023/04/08 09:17:13;;;;;;;13.82;7.80;;;;;;;;;;4220385;34;20054;-68
2023/04/08 09:19:59;;;;;;;12.25;8.32;;;;;;;;;;4220621;34;20050;-68
2023/04/08 09:22:25;;;;;;;11.43;7.57;;;;;;;;;;4217523;34;20355;-69
2023/04/08 09:24:52;;;;;;;10.85;7.82;;;;;;;;;;4216393;34;20238;-69
2023/04/08 09:27:32;;;;;;;12.23;7.68;;;;;;;;;;4205526;34;20035;-69
2023/04/08 09:30:14;;;;;;;14.80;7.75;;;;;;;;;;4206558;34;20063;-69
2023/04/08 09:32:47;;;;;;;14.30;7.62;;;;;;;;;;4207514;34;20055;-68
2023/04/08 09:35:15;;;;;;;11.55;7.50;;;;;;;;;;4195156;34;20135;-68
2023/04/08 09:37:42;;;;;;;11.57;7.87;;;;;;;;;;4195003;34;20070;-69
2023/04/08 09:40:08;;;;;;;13.65;8.90;;;;;;;;;;4198022;33;20193;-67
2023/04/08 09:42:38;;;;;;;11.18;8.48;;;;;;;;;;4222050;33;20090;-67
2023/04/08 09:45:05;;;;;;;14.90;7.57;;;;;;;;;;4221961;33;20223;-67
2023/04/08 09:47:37;;;;;;;13.13;7.15;;;;;;;;;;4221424;34;20191;-67
2023/04/08 09:50:05;;;;;;;15.23;9.23;;;;;;;;;;4224358;33;20089;-70
2023/04/08 09:52:45;;;;;;;13.15;8.07;;;;;;;;;;4227997;33;21023;-69
2023/04/08 09:55:12;;;;;;;12.80;7.97;;;;;;;;;;4253020;33;20050;-70
2023/04/08 09:57:50;;;;;;;11.90;8.27;;;;;;;;;;4252248;33;20069;-69
2023/04/08 10:00:17;;;;;;;11.48;7.57;;;;;;;;;;4223342;33;20051;-68
2023/04/08 10:02:44;;;;;;;9.65;7.12;;;;;;;;;;4225147;33;20089;-68
2023/04/08 10:05:11;;;;;;;12.00;7.93;;;;;;;;;;4223974;33;20065;-69
2023/04/08 10:07:38;;;;;;;10.77;7.00;;;;;;;;;;4221190;33;20027;-70
2023/04/08 10:10:05;;;;;;;12.50;7.90;;;;;;;;;;4196359;34;20093;-69
2023/04/08 10:12:32;;;;;;;12.80;7.30;;;;;;;;;;4194342;34;20402;-69
2023/04/08 10:15:17;;;;;;;11.93;7.57;;;;;;;;;;4199531;34;20043;-67
2023/04/08 10:17:43;;;;;;;10.18;6.65;;;;;;;;;;4197153;34;20439;-68
2023/04/08 10:20:30;;;;;;;12.77;7.53;;;;;;;;;;4197323;34;20585;-69
2023/04/08 10:22:56;;;;;;;13.73;7.90;;;;;;;;;;4193111;34;20039;-69
2023/04/08 10:25:46;;;;;;;10.60;7.25;;;;;;;;;;4192565;34;20059;-69
2023/04/08 10:28:19;;;;;;;11.75;7.10;;;;;;;;;;4184752;34;20056;-67
2023/04/08 10:30:46;;;;;;;8.45;6.50;;;;;;;;;;4195666;33;20119;-68
2023/04/08 10:33:16;;;;;;;7.05;5.45;;;;;;;;;;4204915;34;20465;-71
2023/04/08 10:35:47;;;;;;;8.80;6.72;;;;;;;;;;4191977;34;20055;-69
2023/04/08 10:38:14;;;;;;;9.20;7.07;;;;;;;;;;4191441;34;20467;-69
2023/04/08 10:40:41;;;;;;;9.27;6.57;;;;;;;;;;4196455;34;20414;-69
2023/04/08 10:43:08;;;;;;;8.80;6.57;;;;;;;;;;4204907;34;20087;-69
2023/04/08 10:45:34;;;;;;;11.30;6.28;;;;;;;;;;4189147;34;20154;-69
2023/04/08 10:48:19;;;;;;;9.75;6.57;;;;;;;;;;4193794;34;20087;-68
2023/04/08 10:50:56;;;;;;;10.95;6.45;;;;;;;;;;4191510;34;20053;-68
2023/04/08 10:53:35;;;;;;;11.05;6.85;;;;;;;;;;4189766;34;20817;-69
2023/04/08 10:56:07;;;;;;;8.73;5.82;;;;;;;;;;4203419;34;20115;-68
2023/04/08 10:58:34;;;;;;;7.82;5.80;;;;;;;;;;4206515;34;20178;-68
2023/04/08 11:01:05;;;;;;;7.10;5.62;;;;;;;;;;4351096;28;20074;-70
2023/04/08 11:03:32;;;;;;;;;;;;;;;;;;4228220;33;20928;-68
2023/04/08 11:05:59;;;;;;;7.22;5.85;;;;;;;;;;4220931;33;19954;-68
2023/04/08 11:08:28;;;;;;;9.10;5.90;;;;;;;;;;4218665;34;20396;-69
2023/04/08 11:10:55;;;;;;;6.85;5.53;;;;;;;;;;4215558;33;20085;-68
2023/04/08 11:13:22;;;;;;;12.13;5.43;;;;;;;;;;4214696;34;20480;-70
2023/04/08 11:15:48;;;;;;;6.95;6.10;;;;;;;;;;4217243;34;20464;-68
2023/04/08 11:18:15;;;;;;;6.75;5.60;;;;;;;;;;4220002;33;20260;-69
2023/04/08 11:20:43;;;;;;;9.48;5.87;;;;;;;;;;4232292;33;20088;-68
2023/04/08 11:23:13;;;;;;;9.18;4.82;;;;;;;;;;4232537;33;20057;-69
2023/04/08 11:25:40;;;;;;;6.72;4.85;;;;;;;;;;4232030;33;20066;-69
2023/04/08 11:28:07;;;;;;;10.57;6.07;;;;;;;;;;4250337;33;20088;-69
2023/04/08 11:30:33;;;;;;;7.45;5.90;;;;;;;;;;4252112;33;20059;-68
2023/04/08 11:33:00;;;;;;;7.57;5.53;;;;;;;;;;4250412;33;20062;-69
2023/04/08 11:35:29;;;;;;;9.98;6.03;;;;;;;;;;4232503;33;20116;-71
2023/04/08 11:37:56;;;;;;;10.82;5.93;;;;;;;;;;4235345;33;20712;-69
2023/04/08 11:40:23;;;;;;;12.05;6.20;;;;;;;;;;4226894;33;20400;-69
2023/04/08 11:42:50;;;;;;;7.00;4.95;;;;;;;;;;4235492;33;20398;-69
2023/04/08 11:45:18;;;;;;;6.12;5.25;;;;;;;;;;4231319;33;20043;-68
2023/04/08 11:47:46;;;;;;;5.85;4.68;;;;;;;;;;4231943;33;20042;-70
2023/04/08 11:50:12;;;;;;;10.52;5.12;;;;;;;;;;4218526;33;20076;-69
2023/04/08 11:52:41;;;;;;;6.62;4.47;;;;;;;;;;4209848;33;20541;-68
2023/04/08 11:55:09;;;;;;;7.03;5.20;;;;;;;;;;4208308;34;20093;-68
2023/04/08 11:57:36;;;;;;;7.20;5.03;;;;;;;;;;4218711;33;20047;-71
2023/04/08 12:00:04;;;;;;;6.00;5.30;;;;;;;;;;4215783;33;20054;-69
2023/04/08 12:02:36;;;;;;;8.68;5.60;;;;;;;;;;4190710;34;20075;-69
2023/04/08 12:05:03;;;;;;;7.80;5.18;;;;;;;;;;4181097;34;20135;-68
2023/04/08 12:07:29;;;;;;;9.23;6.47;;;;;;;;;;4164344;34;20040;-69
2023/04/08 12:09:55;;;;;;;8.90;5.47;;;;;;;;;;4159773;34;20053;-69
2023/04/08 12:12:22;;;;;;;8.38;5.82;;;;;;;;;;4162072;34;20106;-70
2023/04/08 12:14:48;;;;;;;7.80;5.62;;;;;;;;;;4167444;34;20052;-68
2023/04/08 12:17:14;;;;;;;8.00;6.47;;;;;;;;;;4153841;34;20028;-68
2023/04/08 12:19:41;;;;;;;7.62;5.45;;;;;;;;;;4155066;34;20073;-68
2023/04/08 12:22:06;;;;;;;8.27;5.03;;;;;;;;;;4153401;34;20052;-68
2023/04/08 12:24:33;;;;;;;9.15;6.35;;;;;;;;;;4157248;34;20106;-68
2023/04/08 12:27:01;;;;;;;9.07;5.25;;;;;;;;;;4141509;34;20037;-69
2023/04/08 12:29:27;;;;;;;5.50;4.78;;;;;;;;;;4138602;34;20086;-68
2023/04/08 12:31:53;;;;;;;8.07;6.37;;;;;;;;;;4113311;34;20240;-69
2023/04/08 12:34:19;;;;;;;6.87;4.85;;;;;;;;;;4133314;34;20061;-69
2023/04/08 12:36:51;;;;;;;7.82;5.22;;;;;;;;;;4139575;34;20066;-68
2023/04/08 12:39:18;;;;;;;10.48;6.05;;;;;;;;;;4173576;34;20061;-68
2023/04/08 12:41:44;;;;;;;8.68;6.40;;;;;;;;;;4203697;34;20051;-69
2023/04/08 12:44:10;;;;;;;6.50;5.05;;;;;;;;;;4204226;34;20073;-69
2023/04/08 12:46:36;;;;;;;6.07;4.82;;;;;;;;;;4207276;34;20082;-68
2023/04/08 12:49:02;;;;;;;9.68;5.65;;;;;;;;;;4205782;34;20051;-67
2023/04/08 12:51:34;;;;;;;9.63;5.50;;;;;;;;;;4206637;34;20183;-69
2023/04/08 12:54:02;;;;;;;10.43;5.47;;;;;;;;;;4211110;34;20051;-70
2023/04/08 12:56:30;;;;;;;6.22;5.20;;;;;;;;;;4227523;33;20055;-68
2023/04/08 12:58:56;;;;;;;8.00;6.65;;;;;;;;;;4223554;33;20068;-67
2023/04/08 13:01:22;;;;;;;6.82;5.62;;;;;;;;;;4228677;33;20047;-68
2023/04/08 13:03:49;;;;;;;8.93;4.90;;;;;;;;;;4241690;33;20111;-69
2023/04/08 13:06:15;;;;;;;8.25;5.28;;;;;;;;;;4251607;33;20111;-70
2023/04/08 13:08:41;;;;;;;6.07;4.47;;;;;;;;;;4260109;33;20050;-68
2023/04/08 13:11:08;;;;;;;8.93;5.35;;;;;;;;;;4263287;33;20065;-69
2023/04/08 13:13:35;;;;;;;5.75;4.78;;;;;;;;;;4255104;33;20203;-68
2023/04/08 13:16:02;;;;;;;6.85;4.75;;;;;;;;;;4260254;33;20525;-68
2023/04/08 13:18:35;;;;;;;12.20;4.68;;;;;;;;;;4244527;33;20049;-67
2023/04/08 13:21:01;;;;;;;12.88;8.63;;;;;;;;;;4251532;33;20362;-68
2023/04/08 13:23:27;;;;;;;6.90;6.03;;;;;;;;;;4249737;33;20068;-69
2023/04/08 13:25:53;;;;;;;9.63;5.93;;;;;;;;;;4249169;33;20064;-68
2023/04/08 13:28:20;;;;;;;13.52;5.82;;;;;;;;;;4237228;33;20449;-72
2023/04/08 13:30:46;;;;;;;12.05;5.80;;;;;;;;;;4258993;33;20042;-68
2023/04/08 13:33:13;;;;;;;8.32;5.57;;;;;;;;;;4253108;33;20062;-67
2023/04/08 13:35:39;;;;;;;8.75;5.93;;;;;;;;;;4225808;33;20661;-67
2023/04/08 13:38:05;;;;;;;6.97;5.43;;;;;;;;;;4224846;33;20058;-69
2023/04/08 13:40:32;;;;;;;6.03;5.40;;;;;;;;;;4218541;33;20086;-68
2023/04/08 13:42:58;;;;;;;7.03;5.30;;;;;;;;;;4219154;33;20059;-68
2023/04/08 13:45:24;;;;;;;5.28;4.47;;;;;;;;;;4217949;33;20062;-68
2023/04/08 13:47:50;;;;;;;7.72;5.62;;;;;;;;;;4226067;33;20080;-68
2023/04/08 13:50:16;;;;;;;6.70;4.62;;;;;;;;;;4218949;33;20078;-72
2023/04/08 13:52:43;;;;;;;5.60;4.47;;;;;;;;;;4217512;33;20500;-68
2023/04/08 13:55:09;;;;;;;7.00;5.03;;;;;;;;;;4220433;33;20305;-68
2023/04/08 13:57:35;;;;;;;5.68;4.85;;;;;;;;;;4221234;33;20512;-68
2023/04/08 14:00:01;;;;;;;4.90;4.50;;;;;;;;;;4222708;34;20043;-69
2023/04/08 14:02:28;;;;;;;6.32;4.12;;;;;;;;;;4209696;33;20095;-68
2023/04/08 14:04:55;;;;;;;6.28;4.20;;;;;;;;;;4205404;34;20394;-71
2023/04/08 14:07:21;;;;;;;7.03;5.37;;;;;;;;;;4204291;34;20077;-69
2023/04/08 14:09:47;;;;;;;7.28;5.65;;;;;;;;;;4208598;34;20417;-68
2023/04/08 14:12:13;;;;;;;6.43;5.43;;;;;;;;;;4213247;33;20127;-67
2023/04/08 14:14:40;;;;;;;5.95;5.35;;;;;;;;;;4244494;33;20425;-70
2023/04/08 14:17:06;;;;;;;7.72;5.85;;;;;;;;;;4241900;33;20081;-73
2023/04/08 14:19:32;;;;;;;16.58;5.47;;;;;;;;;;4235037;33;20076;-67
2023/04/08 14:21:59;;;;;;;7.82;6.30;;;;;;;;;;4234824;33;20467;-70
2023/04/08 14:24:26;;;;;;;6.20;5.18;;;;;;;;;;4235474;33;20068;-69
2023/04/08 14:26:53;;;;;;;6.85;5.25;;;;;;;;;;4240958;33;20097;-68
2023/04/08 14:29:19;;;;;;;8.35;5.45;;;;;;;;;;4233462;33;20072;-67
2023/04/08 14:31:45;;;;;;;7.78;5.10;;;;;;;;;;4225345;33;20063;-67
2023/04/08 14:34:12;;;;;;;11.50;5.97;;;;;;;;;;4221101;34;20485;-68
2023/04/08 14:36:38;;;;;;;8.27;5.07;;;;;;;;;;4230646;33;20120;-69
2023/04/08 14:39:04;;;;;;;12.88;6.62;;;;;;;;;;4227185;33;20042;-68
2023/04/08 14:41:31;;;;;;;8.77;6.05;;;;;;;;;;4240801;33;20068;-71
2023/04/08 14:43:57;;;;;;;6.03;4.72;;;;;;;;;;4248475;33;20039;-68
2023/04/08 14:46:24;;;;;;;7.97;5.22;;;;;;;;;;4237686;33;20054;-68
2023/04/08 14:48:51;;;;;;;10.38;5.68;;;;;;;;;;4224644;33;20196;-68
2023/04/08 14:51:17;;;;;;;8.48;5.80;;;;;;;;;;4220346;34;20239;-68
2023/04/08 14:53:43;;;;;;;6.65;4.87;;;;;;;;;;4219419;34;20109;-70
2023/04/08 14:56:10;;;;;;;6.20;5.60;;;;;;;;;;4220100;34;20327;-68
2023/04/08 14:58:36;;;;;;;11.77;4.80;;;;;;;;;;4221483;33;20397;-68
2023/04/08 15:01:03;;;;;;;6.47;4.62;;;;;;;;;;4205126;34;20058;-68
2023/04/08 15:03:29;;;;;;;6.72;4.32;;;;;;;;;;4220600;34;20046;-69
2023/04/08 15:05:57;;;;;;;5.30;4.78;;;;;;;;;;4204233;34;20063;-69
2023/04/08 15:08:23;;;;;;;6.47;4.65;;;;;;;;;;4208411;34;20079;-69
2023/04/08 15:10:55;;;;;;;6.00;4.90;;;;;;;;;;4209243;34;20048;-67
2023/04/08 15:13:22;;;;;;;10.27;5.22;;;;;;;;;;4207523;34;20051;-69
2023/04/08 15:15:48;;;;;;;8.80;5.07;;;;;;;;;;4204554;34;20090;-72
2023/04/08 15:18:15;;;;;;;4.97;4.37;;;;;;;;;;4207336;34;21275;-70
2023/04/08 15:20:42;;;;;;;6.43;5.15;;;;;;;;;;4224842;33;20094;-69
2023/04/08 15:23:08;;;;;;;7.20;5.78;;;;;;;;;;4218808;33;20333;-68
2023/04/08 15:25:35;;;;;;;8.43;5.78;;;;;;;;;;4219822;33;20059;-71
2023/04/08 15:28:01;;;;;;;9.70;5.78;;;;;;;;;;4219551;33;20067;-68
2023/04/08 15:30:28;;;;;;;7.18;5.20;;;;;;;;;;4220554;34;20058;-68
2023/04/08 15:32:54;;;;;;;4.65;3.55;;;;;;;;;;4223217;33;20039;-69
2023/04/08 15:35:23;;;;;;;5.50;4.07;;;;;;;;;;4194022;34;20067;-70
2023/04/08 15:37:49;;;;;;;5.78;4.50;;;;;;;;;;4193473;34;20071;-68
2023/04/08 15:40:16;;;;;;;12.90;6.12;;;;;;;;;;4189828;34;20525;-68
2023/04/08 15:42:42;;;;;;;6.53;5.45;;;;;;;;;;4192221;34;20067;-68
2023/04/08 15:45:08;;;;;;;36.80;19.05;;;;;;;;;;4184963;34;20063;-68
2023/04/08 15:47:34;;;;;;;6.80;5.10;;;;;;;;;;4183453;34;20048;-69
2023/04/08 15:50:01;;;;;;;7.30;5.12;;;;;;;;;;4189848;34;20059;-67
2023/04/08 15:52:27;;;;;;;8.35;5.22;;;;;;;;;;4190695;34;20209;-71
2023/04/08 15:54:53;;;;;;;8.10;5.00;;;;;;;;;;4191018;34;20088;-69
2023/04/08 15:57:25;;;;;;;9.02;5.68;;;;;;;;;;4205382;34;20035;-70
2023/04/08 15:59:52;;;;;;;7.45;4.93;;;;;;;;;;4204664;34;20065;-71
2023/04/08 16:02:18;;;;;;;10.48;6.50;;;;;;;;;;4207702;34;20327;-68
2023/04/08 16:04:45;;;;;;;9.30;6.07;;;;;;;;;;4207856;34;20123;-69
2023/04/08 16:07:12;;;;;;;9.18;5.15;;;;;;;;;;4196356;34;20039;-68
2023/04/08 16:09:38;;;;;;;8.45;5.87;;;;;;;;;;4191448;34;20099;-68
2023/04/08 16:12:04;;;;;;;9.60;6.55;;;;;;;;;;4189855;34;20067;-69
2023/04/08 16:14:30;;;;;;;7.95;5.78;;;;;;;;;;4195113;33;20079;-68
2023/04/08 16:16:56;;;;;;;206.25;116.20;;;;;;;;;;4224567;33;20413;-69
2023/04/08 16:19:23;;;;;;;10.10;5.85;;;;;;;;;;4213476;34;20154;-69
2023/04/08 16:21:49;;;;;;;10.55;6.55;;;;;;;;;;4206553;34;20069;-69
2023/04/08 16:24:15;;;;;;;10.07;6.37;;;;;;;;;;4209072;34;20050;-68
2023/04/08 16:26:42;;;;;;;13.25;7.80;;;;;;;;;;4215850;34;20100;-68
2023/04/08 16:29:08;;;;;;;12.07;7.45;;;;;;;;;;4181325;34;20095;-68
2023/04/08 16:31:34;;;;;;;20.65;7.53;;;;;;;;;;4178202;34;20118;-69
2023/04/08 16:34:01;;;;;;;9.65;6.37;;;;;;;;;;4175721;34;20067;-71
2023/04/08 16:36:27;;;;;;;11.75;7.07;;;;;;;;;;4176663;34;20113;-68
2023/04/08 16:38:54;;;;;;;17.77;9.38;;;;;;;;;;4218108;33;20046;-68